Time;durP1;ratioP1;P1;durP2;ratioP2;P2;SDS_P1;SDS_P2;PMS_P1;PMS_P2;Temp;Humidity;BMP_temperature;BMP_pressure;BME280_temperature;BME280_humidity;BME280_pressure;Samples;Min_cycle;Max_cycle;Signal;HPM_P1;HPM_P2
2022/02/28 00:01:29;;;;;;;8.25;3.47;;;;;;;;;;5010361;28;20046;-46
2022/02/28 00:03:56;;;;;;;10.93;3.10;;;;;;;;;;5008978;28;20064;-45
2022/02/28 00:06:23;;;;;;;10.70;4.03;;;;;;;;;;5010929;28;20486;-44
2022/02/28 00:08:49;;;;;;;11.02;3.22;;;;;;;;;;5010898;28;20029;-44
2022/02/28 00:11:15;;;;;;;7.30;3.17;;;;;;;;;;5010786;28;20183;-45
2022/02/28 00:13:41;;;;;;;9.63;3.85;;;;;;;;;;5010948;28;20030;-44
2022/02/28 00:16:07;;;;;;;9.57;3.17;;;;;;;;;;5010848;28;20384;-43
2022/02/28 00:18:34;;;;;;;12.60;4.10;;;;;;;;;;5010326;28;20033;-43
2022/02/28 00:21:01;;;;;;;9.20;3.58;;;;;;;;;;5010727;28;20026;-41
2022/02/28 00:23:27;;;;;;;10.02;4.43;;;;;;;;;;5010063;28;20052;-43
2022/02/28 00:25:54;;;;;;;7.47;3.47;;;;;;;;;;5010863;28;20072;-42
2022/02/28 00:28:20;;;;;;;10.48;3.80;;;;;;;;;;5010409;28;20731;-45
2022/02/28 00:30:47;;;;;;;7.10;3.10;;;;;;;;;;5010683;28;20388;-40
2022/02/28 00:33:13;;;;;;;12.25;3.20;;;;;;;;;;5008884;28;20137;-42
2022/02/28 00:35:39;;;;;;;8.05;3.88;;;;;;;;;;5010671;28;20108;-45
2022/02/28 00:38:08;;;;;;;9.35;3.50;;;;;;;;;;5010041;28;20122;-42
2022/02/28 00:40:34;;;;;;;8.48;3.58;;;;;;;;;;5009848;28;20064;-41
2022/02/28 00:43:00;;;;;;;9.60;3.47;;;;;;;;;;5010161;28;20054;-43
2022/02/28 00:45:26;;;;;;;9.32;3.88;;;;;;;;;;5009201;28;20034;-43
2022/02/28 00:47:52;;;;;;;7.57;3.65;;;;;;;;;;5010294;28;20029;-41
2022/02/28 00:50:18;;;;;;;8.00;3.10;;;;;;;;;;5010069;28;20101;-42
2022/02/28 00:52:44;;;;;;;6.70;2.90;;;;;;;;;;5009882;28;20164;-42
2022/02/28 00:55:11;;;;;;;8.05;2.90;;;;;;;;;;5009369;28;20038;-41
2022/02/28 00:57:39;;;;;;;7.88;3.22;;;;;;;;;;5010564;28;20480;-47
2022/02/28 01:00:08;;;;;;;8.43;3.60;;;;;;;;;;5009481;28;20558;-42
2022/02/28 01:02:34;;;;;;;8.90;3.38;;;;;;;;;;5010048;28;20144;-43
2022/02/28 01:05:00;;;;;;;6.88;3.13;;;;;;;;;;5009890;28;20180;-43
2022/02/28 01:07:26;;;;;;;7.03;3.08;;;;;;;;;;5009304;28;20033;-41
2022/02/28 01:09:53;;;;;;;8.68;3.20;;;;;;;;;;5009465;28;20093;-45
2022/02/28 01:12:19;;;;;;;10.57;3.83;;;;;;;;;;5009643;28;20105;-43
2022/02/28 01:14:45;;;;;;;6.13;2.97;;;;;;;;;;5009705;28;20055;-42
2022/02/28 01:17:11;;;;;;;9.52;3.15;;;;;;;;;;5009527;28;20120;-42
2022/02/28 01:19:38;;;;;;;5.68;3.28;;;;;;;;;;5009607;28;20110;-43
2022/02/28 01:22:04;;;;;;;6.28;2.90;;;;;;;;;;5009200;28;20026;-44
2022/02/28 01:24:30;;;;;;;5.57;2.63;;;;;;;;;;5008830;28;20041;-45
2022/02/28 01:26:56;;;;;;;7.22;3.13;;;;;;;;;;5009146;28;20105;-46
2022/02/28 01:29:22;;;;;;;8.10;2.90;;;;;;;;;;5009007;28;20118;-44
2022/02/28 01:31:49;;;;;;;9.38;3.17;;;;;;;;;;5009347;28;20037;-44
2022/02/28 01:34:15;;;;;;;6.68;3.58;;;;;;;;;;5008906;28;20037;-42
2022/02/28 01:36:42;;;;;;;6.53;3.45;;;;;;;;;;5009610;28;20034;-46
2022/02/28 01:39:08;;;;;;;7.97;2.80;;;;;;;;;;5008556;28;20424;-46
2022/02/28 01:41:34;;;;;;;5.82;2.90;;;;;;;;;;5008975;28;20116;-44
2022/02/28 01:44:00;;;;;;;7.18;3.35;;;;;;;;;;5008639;28;20448;-46
2022/02/28 01:46:26;;;;;;;7.45;3.05;;;;;;;;;;5008143;28;20483;-52
2022/02/28 01:48:52;;;;;;;6.57;3.50;;;;;;;;;;5009210;28;20555;-45
2022/02/28 01:51:18;;;;;;;5.95;2.60;;;;;;;;;;5008515;28;20113;-46
2022/02/28 01:53:44;;;;;;;6.88;2.72;;;;;;;;;;5009315;28;20114;-43
2022/02/28 01:56:11;;;;;;;7.15;3.30;;;;;;;;;;5008731;28;20060;-48
2022/02/28 01:58:38;;;;;;;4.20;2.35;;;;;;;;;;5008901;28;20807;-46
2022/02/28 02:01:04;;;;;;;6.30;2.88;;;;;;;;;;5008899;28;20532;-48
2022/02/28 02:03:30;;;;;;;6.70;2.90;;;;;;;;;;5007810;28;20143;-49
2022/02/28 02:05:56;;;;;;;6.78;2.83;;;;;;;;;;5009114;28;20060;-48
2022/02/28 02:08:23;;;;;;;5.32;2.85;;;;;;;;;;5008095;28;20022;-45
2022/02/28 02:10:49;;;;;;;6.28;2.88;;;;;;;;;;5008337;28;20443;-45
2022/02/28 02:13:15;;;;;;;6.82;2.50;;;;;;;;;;5008340;28;20026;-44
2022/02/28 02:15:42;;;;;;;5.88;3.00;;;;;;;;;;5008542;28;20033;-44
2022/02/28 02:18:08;;;;;;;5.47;2.90;;;;;;;;;;5008635;28;20029;-43
2022/02/28 02:20:35;;;;;;;7.85;3.33;;;;;;;;;;5007831;28;20054;-47
2022/02/28 02:23:06;;;;;;;6.20;3.08;;;;;;;;;;5008102;28;20124;-47
2022/02/28 02:25:32;;;;;;;7.10;3.13;;;;;;;;;;5007815;28;20617;-49
2022/02/28 02:27:58;;;;;;;5.22;2.47;;;;;;;;;;5008272;28;20109;-43
2022/02/28 02:30:25;;;;;;;8.27;3.17;;;;;;;;;;5008384;28;20033;-43
2022/02/28 02:32:52;;;;;;;5.90;2.58;;;;;;;;;;5008383;28;20022;-43
2022/02/28 02:35:18;;;;;;;6.03;3.03;;;;;;;;;;5008318;28;20026;-42
2022/02/28 02:37:44;;;;;;;7.05;3.00;;;;;;;;;;5008344;28;20076;-39
2022/02/28 02:40:11;;;;;;;5.97;2.53;;;;;;;;;;5008491;28;20602;-43
2022/02/28 02:42:37;;;;;;;6.50;2.65;;;;;;;;;;5007881;28;20038;-45
2022/02/28 02:45:03;;;;;;;6.32;2.95;;;;;;;;;;5008389;28;20836;-44
2022/02/28 02:47:29;;;;;;;6.28;2.83;;;;;;;;;;5007750;28;20030;-44
2022/02/28 02:49:55;;;;;;;6.28;2.83;;;;;;;;;;5008194;28;20105;-43
2022/02/28 02:52:21;;;;;;;6.53;3.05;;;;;;;;;;5008009;28;20465;-46
2022/02/28 02:54:47;;;;;;;6.35;2.67;;;;;;;;;;5007507;28;20029;-43
2022/02/28 02:57:16;;;;;;;6.40;2.92;;;;;;;;;;5007701;28;20026;-43
2022/02/28 02:59:42;;;;;;;5.72;2.80;;;;;;;;;;5008368;28;20036;-41
2022/02/28 03:02:08;;;;;;;5.75;2.83;;;;;;;;;;5007916;28;20439;-43
2022/02/28 03:04:34;;;;;;;8.68;2.40;;;;;;;;;;5007860;28;20192;-43
2022/02/28 03:07:00;;;;;;;6.47;2.83;;;;;;;;;;5008106;28;20829;-46
2022/02/28 03:09:26;;;;;;;6.70;3.13;;;;;;;;;;5007866;28;20022;-45
2022/02/28 03:11:52;;;;;;;4.60;2.35;;;;;;;;;;5006716;28;20480;-41
2022/02/28 03:14:18;;;;;;;7.28;2.75;;;;;;;;;;5007851;28;20037;-42
2022/02/28 03:16:44;;;;;;;5.68;2.50;;;;;;;;;;5008343;28;20030;-46
2022/02/28 03:19:10;;;;;;;5.00;2.38;;;;;;;;;;5007920;28;20033;-42
2022/02/28 03:21:36;;;;;;;6.00;3.08;;;;;;;;;;5008157;28;20085;-43
2022/02/28 03:24:03;;;;;;;5.75;2.92;;;;;;;;;;5007858;28;20506;-43
2022/02/28 03:26:29;;;;;;;4.88;2.33;;;;;;;;;;5007208;28;20427;-42
2022/02/28 03:28:55;;;;;;;6.47;3.38;;;;;;;;;;5007759;28;20900;-42
2022/02/28 03:31:21;;;;;;;5.45;2.45;;;;;;;;;;5007118;28;20758;-43
2022/02/28 03:33:47;;;;;;;3.95;2.25;;;;;;;;;;5008213;28;20033;-42
2022/02/28 03:36:13;;;;;;;6.63;3.17;;;;;;;;;;5007035;28;20041;-43
2022/02/28 03:38:39;;;;;;;6.25;2.60;;;;;;;;;;5007855;28;20077;-45
2022/02/28 03:41:07;;;;;;;5.13;2.40;;;;;;;;;;5007395;28;20025;-44
2022/02/28 03:43:33;;;;;;;5.25;2.58;;;;;;;;;;5007368;28;20437;-43
2022/02/28 03:45:59;;;;;;;5.75;2.33;;;;;;;;;;5007294;28;20053;-44
2022/02/28 03:48:25;;;;;;;6.25;2.53;;;;;;;;;;5007549;28;20455;-45
2022/02/28 03:50:51;;;;;;;5.65;2.47;;;;;;;;;;5007183;28;20034;-46
2022/02/28 03:53:17;;;;;;;5.93;2.85;;;;;;;;;;5007611;28;20083;-46
2022/02/28 03:55:43;;;;;;;4.70;2.20;;;;;;;;;;5006911;28;20026;-50
2022/02/28 03:58:09;;;;;;;4.18;2.35;;;;;;;;;;5007983;28;20449;-47
2022/02/28 04:00:36;;;;;;;5.20;2.50;;;;;;;;;;5007753;28;20030;-49
2022/02/28 04:03:02;;;;;;;5.22;2.03;;;;;;;;;;5007165;28;20040;-42
2022/02/28 04:05:28;;;;;;;5.32;2.03;;;;;;;;;;5007206;28;20034;-47
2022/02/28 04:07:54;;;;;;;6.18;2.70;;;;;;;;;;5009420;28;20117;-42
2022/02/28 04:10:20;;;;;;;4.05;2.20;;;;;;;;;;5010845;28;20030;-45
2022/02/28 04:12:46;;;;;;;5.25;2.25;;;;;;;;;;5010217;28;20105;-44
2022/02/28 04:15:13;;;;;;;5.30;2.47;;;;;;;;;;5010530;28;20034;-47
2022/02/28 04:17:39;;;;;;;4.05;2.20;;;;;;;;;;5010705;28;20555;-47
2022/02/28 04:20:06;;;;;;;4.20;2.15;;;;;;;;;;5010970;28;20109;-45
2022/02/28 04:22:32;;;;;;;5.03;2.60;;;;;;;;;;5010500;28;20141;-47
2022/02/28 04:24:58;;;;;;;6.50;2.63;;;;;;;;;;5010229;28;20492;-43
2022/02/28 04:27:24;;;;;;;5.40;2.38;;;;;;;;;;5009777;28;20025;-43
2022/02/28 04:29:50;;;;;;;6.05;2.53;;;;;;;;;;5010663;28;20030;-43
2022/02/28 04:32:16;;;;;;;6.53;2.70;;;;;;;;;;5010184;28;20041;-43
2022/02/28 04:34:42;;;;;;;5.25;2.25;;;;;;;;;;5010683;28;20100;-42
2022/02/28 04:37:08;;;;;;;4.53;1.73;;;;;;;;;;5010443;28;20037;-45
2022/02/28 04:39:35;;;;;;;5.10;2.22;;;;;;;;;;5010015;28;20137;-44
2022/02/28 04:42:01;;;;;;;3.92;1.88;;;;;;;;;;5010187;28;20036;-44
2022/02/28 04:44:27;;;;;;;4.40;2.63;;;;;;;;;;5010062;28;20034;-42
2022/02/28 04:46:53;;;;;;;5.47;2.30;;;;;;;;;;5010340;28;20057;-43
2022/02/28 04:49:19;;;;;;;4.63;2.20;;;;;;;;;;5009701;28;20395;-40
2022/02/28 04:51:45;;;;;;;5.47;2.53;;;;;;;;;;5010467;28;20022;-41
2022/02/28 04:54:11;;;;;;;7.03;2.33;;;;;;;;;;5009483;28;20113;-41
2022/02/28 04:56:37;;;;;;;3.63;2.22;;;;;;;;;;5009700;28;20045;-42
2022/02/28 04:59:03;;;;;;;6.78;2.35;;;;;;;;;;5009890;28;20030;-42
2022/02/28 05:01:29;;;;;;;5.45;2.05;;;;;;;;;;5010098;28;20045;-40
2022/02/28 05:03:58;;;;;;;6.22;2.90;;;;;;;;;;5009108;28;20065;-43
2022/02/28 05:06:24;;;;;;;5.50;2.00;;;;;;;;;;5008895;28;20030;-45
2022/02/28 05:08:50;;;;;;;5.70;2.83;;;;;;;;;;5008924;28;20113;-41
2022/02/28 05:11:16;;;;;;;11.68;2.45;;;;;;;;;;5006554;28;20034;-43
2022/02/28 05:13:42;;;;;;;6.57;2.50;;;;;;;;;;5008950;28;20124;-42
2022/02/28 05:16:09;;;;;;;6.95;2.38;;;;;;;;;;5009043;28;20747;-44
2022/02/28 05:18:35;;;;;;;6.15;2.42;;;;;;;;;;5008636;28;20034;-45
2022/02/28 05:21:02;;;;;;;4.32;2.08;;;;;;;;;;5009015;28;20025;-43
2022/02/28 05:23:28;;;;;;;5.80;2.55;;;;;;;;;;5007964;28;20112;-43
2022/02/28 05:25:54;;;;;;;5.28;2.55;;;;;;;;;;5007937;28;20120;-44
2022/02/28 05:28:21;;;;;;;3.80;2.10;;;;;;;;;;5007557;28;20733;-45
2022/02/28 05:30:47;;;;;;;6.97;2.83;;;;;;;;;;5008572;28;20077;-45
2022/02/28 05:33:15;;;;;;;8.23;2.65;;;;;;;;;;5008061;28;20144;-44
2022/02/28 05:35:41;;;;;;;5.25;2.55;;;;;;;;;;5008077;28;20042;-44
2022/02/28 05:38:07;;;;;;;8.73;2.80;;;;;;;;;;5008053;28;20468;-46
2022/02/28 05:40:33;;;;;;;8.30;3.17;;;;;;;;;;5004894;28;20149;-43
2022/02/28 05:42:59;;;;;;;5.32;2.72;;;;;;;;;;5008000;28;20112;-47
2022/02/28 05:45:26;;;;;;;9.63;3.03;;;;;;;;;;5007578;28;20361;-43
2022/02/28 05:47:52;;;;;;;4.63;2.15;;;;;;;;;;5007895;28;20036;-41
2022/02/28 05:50:18;;;;;;;6.57;2.97;;;;;;;;;;5007449;28;20033;-44
2022/02/28 05:52:45;;;;;;;6.82;2.60;;;;;;;;;;5007554;28;20045;-42
2022/02/28 05:55:12;;;;;;;6.15;2.53;;;;;;;;;;5007832;28;20112;-42
2022/02/28 05:57:39;;;;;;;4.57;2.35;;;;;;;;;;5007580;28;20179;-44
2022/02/28 06:00:06;;;;;;;5.47;2.63;;;;;;;;;;5007493;28;20140;-40
2022/02/28 06:02:32;;;;;;;6.82;3.00;;;;;;;;;;5007123;28;20033;-45
2022/02/28 06:04:59;;;;;;;7.65;3.15;;;;;;;;;;5008257;28;20153;-43
2022/02/28 06:07:25;;;;;;;4.68;2.60;;;;;;;;;;5008686;28;20022;-45
2022/02/28 06:09:51;;;;;;;8.95;3.10;;;;;;;;;;5008768;28;20026;-46
2022/02/28 06:12:17;;;;;;;9.68;3.42;;;;;;;;;;5008354;28;20038;-48
2022/02/28 06:14:43;;;;;;;10.40;3.13;;;;;;;;;;5008415;28;20121;-45
2022/02/28 06:17:09;;;;;;;18.08;3.83;;;;;;;;;;5008742;28;20075;-45
2022/02/28 06:19:35;;;;;;;15.15;3.25;;;;;;;;;;5008582;28;20380;-43
2022/02/28 06:22:01;;;;;;;11.80;3.40;;;;;;;;;;5008305;28;20045;-47
2022/02/28 06:24:27;;;;;;;9.63;2.78;;;;;;;;;;5008649;28;20038;-43
2022/02/28 06:26:54;;;;;;;13.25;3.42;;;;;;;;;;5007702;28;20092;-45
2022/02/28 06:29:20;;;;;;;15.90;3.22;;;;;;;;;;5008217;28;20125;-41
2022/02/28 06:31:46;;;;;;;14.82;4.55;;;;;;;;;;5008074;28;20033;-44
2022/02/28 06:34:13;;;;;;;15.85;3.58;;;;;;;;;;5008491;28;20038;-45
2022/02/28 06:36:39;;;;;;;11.90;3.25;;;;;;;;;;5007906;28;20091;-44
2022/02/28 06:39:06;;;;;;;12.48;4.22;;;;;;;;;;5008547;28;20204;-44
2022/02/28 06:41:32;;;;;;;17.80;2.83;;;;;;;;;;5006602;28;20014;-40
2022/02/28 06:43:58;;;;;;;19.30;2.55;;;;;;;;;;5008450;28;20026;-42
2022/02/28 06:46:24;;;;;;;13.13;2.85;;;;;;;;;;5007976;28;20047;-43
2022/02/28 06:48:50;;;;;;;9.45;2.75;;;;;;;;;;5008230;28;20494;-44
2022/02/28 06:51:16;;;;;;;14.48;2.70;;;;;;;;;;5007660;28;20033;-44
2022/02/28 06:53:42;;;;;;;13.32;3.10;;;;;;;;;;5006551;28;20034;-43
2022/02/28 06:56:08;;;;;;;29.17;3.80;;;;;;;;;;5007864;28;20038;-46
2022/02/28 06:58:35;;;;;;;14.20;3.40;;;;;;;;;;5006749;28;20107;-47
2022/02/28 07:01:01;;;;;;;11.68;2.40;;;;;;;;;;5005311;28;20117;-43
2022/02/28 07:03:27;;;;;;;18.65;2.92;;;;;;;;;;5005963;28;20136;-45
2022/02/28 07:05:58;;;;;;;7.22;2.42;;;;;;;;;;5005477;28;20108;-46
2022/02/28 07:08:24;;;;;;;10.52;3.03;;;;;;;;;;5007653;28;20038;-47
2022/02/28 07:10:52;;;;;;;13.80;2.80;;;;;;;;;;5008061;28;20037;-49
2022/02/28 07:13:18;;;;;;;7.30;2.45;;;;;;;;;;5008113;28;20128;-46
2022/02/28 07:15:46;;;;;;;12.95;3.03;;;;;;;;;;4988462;28;20037;-44
2022/02/28 07:18:12;;;;;;;8.40;2.30;;;;;;;;;;5002707;28;20038;-51
2022/02/28 07:20:38;;;;;;;9.27;2.60;;;;;;;;;;5008126;28;20108;-44
2022/02/28 07:23:05;;;;;;;10.75;3.28;;;;;;;;;;5007185;28;20110;-48
2022/02/28 07:25:31;;;;;;;8.90;2.80;;;;;;;;;;5007601;28;20570;-47
2022/02/28 07:27:58;;;;;;;13.57;2.60;;;;;;;;;;5006822;28;20145;-45
2022/02/28 07:30:25;;;;;;;11.18;3.08;;;;;;;;;;5005702;28;20032;-44
2022/02/28 07:32:51;;;;;;;15.75;3.13;;;;;;;;;;5007203;28;20049;-43
2022/02/28 07:35:17;;;;;;;9.90;3.05;;;;;;;;;;5006707;28;20026;-43
2022/02/28 07:37:43;;;;;;;13.32;3.17;;;;;;;;;;5007632;28;20484;-41
2022/02/28 07:40:10;;;;;;;10.15;2.78;;;;;;;;;;5006910;28;20037;-47
2022/02/28 07:42:36;;;;;;;19.13;3.42;;;;;;;;;;5010269;28;20141;-43
2022/02/28 07:45:03;;;;;;;16.08;2.95;;;;;;;;;;5011215;28;20034;-43
2022/02/28 07:47:29;;;;;;;13.95;2.55;;;;;;;;;;5011234;28;20105;-45
2022/02/28 07:49:55;;;;;;;11.45;2.67;;;;;;;;;;5011106;28;20022;-44
2022/02/28 07:52:21;;;;;;;9.73;2.80;;;;;;;;;;5011387;28;20555;-44
2022/02/28 07:54:48;;;;;;;10.07;2.90;;;;;;;;;;5010679;28;20128;-44
2022/02/28 07:57:15;;;;;;;9.30;3.20;;;;;;;;;;5010831;28;20017;-43
2022/02/28 07:59:41;;;;;;;16.15;3.25;;;;;;;;;;5010208;28;20421;-46
2022/02/28 08:02:07;;;;;;;15.45;2.97;;;;;;;;;;5011071;28;20018;-46
2022/02/28 08:04:33;;;;;;;9.45;3.33;;;;;;;;;;5007457;28;20136;-41
2022/02/28 08:07:00;;;;;;;18.60;3.45;;;;;;;;;;5006981;28;20022;-49
2022/02/28 08:09:26;;;;;;;12.80;3.17;;;;;;;;;;5003334;28;20117;-50
2022/02/28 08:11:56;;;;;;;17.85;3.33;;;;;;;;;;5000837;28;20037;-44
2022/02/28 08:14:22;;;;;;;14.05;3.53;;;;;;;;;;5003378;28;20500;-45
2022/02/28 08:16:48;;;;;;;8.35;3.28;;;;;;;;;;5001187;28;20117;-46
2022/02/28 08:19:15;;;;;;;12.40;3.13;;;;;;;;;;5001001;28;20117;-41
2022/02/28 08:21:42;;;;;;;17.30;3.90;;;;;;;;;;5003818;28;20041;-44
2022/02/28 08:24:08;;;;;;;11.60;3.35;;;;;;;;;;5001577;28;20046;-46
2022/02/28 08:26:34;;;;;;;12.30;3.22;;;;;;;;;;5000561;28;20032;-43
2022/02/28 08:29:00;;;;;;;12.65;3.15;;;;;;;;;;5001621;28;20033;-45
2022/02/28 08:31:27;;;;;;;10.82;3.70;;;;;;;;;;5004471;28;20380;-47
2022/02/28 08:33:53;;;;;;;18.55;3.28;;;;;;;;;;5003519;28;20041;-44
2022/02/28 08:36:19;;;;;;;14.40;2.97;;;;;;;;;;5003110;28;20061;-44
2022/02/28 08:38:45;;;;;;;10.73;2.92;;;;;;;;;;5006001;28;20129;-44
2022/02/28 08:41:11;;;;;;;16.48;3.42;;;;;;;;;;5004225;28;20030;-47
2022/02/28 08:43:37;;;;;;;11.95;2.97;;;;;;;;;;5005201;28;20789;-48
2022/02/28 08:46:05;;;;;;;12.13;2.33;;;;;;;;;;5003034;28;20026;-47
2022/02/28 08:48:31;;;;;;;13.50;3.33;;;;;;;;;;5004658;28;20030;-43
2022/02/28 08:50:57;;;;;;;11.35;3.50;;;;;;;;;;5002026;28;20106;-44
2022/02/28 08:53:23;;;;;;;13.60;3.00;;;;;;;;;;5001307;28;20116;-44
2022/02/28 08:55:49;;;;;;;10.48;2.70;;;;;;;;;;5002778;28;20455;-47
2022/02/28 08:58:15;;;;;;;14.93;2.75;;;;;;;;;;5003215;28;20121;-50
2022/02/28 09:00:41;;;;;;;15.70;3.83;;;;;;;;;;5003192;28;20034;-47
2022/02/28 09:03:08;;;;;;;13.57;3.75;;;;;;;;;;5001981;28;20026;-46
2022/02/28 09:05:34;;;;;;;15.23;3.47;;;;;;;;;;5002759;28;20022;-47
2022/02/28 09:08:02;;;;;;;12.80;2.90;;;;;;;;;;5003776;28;20030;-49
2022/02/28 09:10:28;;;;;;;6.72;2.60;;;;;;;;;;4998608;28;20108;-46
2022/02/28 09:12:54;;;;;;;10.57;3.00;;;;;;;;;;4999796;28;20408;-44
2022/02/28 09:15:20;;;;;;;10.88;3.25;;;;;;;;;;5000974;28;20048;-44
2022/02/28 09:17:46;;;;;;;13.50;2.88;;;;;;;;;;5001966;28;20034;-48
2022/02/28 09:20:12;;;;;;;12.50;3.03;;;;;;;;;;4999550;28;20034;-44
2022/02/28 09:22:38;;;;;;;6.40;2.38;;;;;;;;;;5003415;28;20069;-47
2022/02/28 09:25:05;;;;;;;10.70;2.50;;;;;;;;;;5003717;28;20125;-42
2022/02/28 09:27:31;;;;;;;13.40;3.58;;;;;;;;;;5004516;28;20037;-45
2022/02/28 09:29:57;;;;;;;9.23;2.60;;;;;;;;;;5002371;28;20030;-46
2022/02/28 09:32:23;;;;;;;6.70;2.67;;;;;;;;;;5005334;28;20022;-48
2022/02/28 09:34:49;;;;;;;8.20;2.50;;;;;;;;;;5003216;28;20045;-47
2022/02/28 09:37:15;;;;;;;11.30;3.78;;;;;;;;;;5003873;28;20072;-41
2022/02/28 09:39:41;;;;;;;9.95;2.60;;;;;;;;;;5002249;28;20543;-44
2022/02/28 09:42:07;;;;;;;9.68;2.55;;;;;;;;;;5002068;28;20037;-47
2022/02/28 09:44:34;;;;;;;9.25;2.90;;;;;;;;;;5001712;28;20034;-42
2022/02/28 09:47:00;;;;;;;10.07;2.30;;;;;;;;;;5002302;28;20033;-49
2022/02/28 09:49:27;;;;;;;7.57;2.38;;;;;;;;;;5002448;28;20036;-45
2022/02/28 09:51:53;;;;;;;12.07;2.40;;;;;;;;;;5005795;28;20494;-41
2022/02/28 09:54:20;;;;;;;9.38;2.33;;;;;;;;;;5000066;28;20038;-48
2022/02/28 09:56:46;;;;;;;10.70;2.65;;;;;;;;;;5002648;28;20034;-42
2022/02/28 09:59:12;;;;;;;9.75;3.42;;;;;;;;;;5004372;28;20102;-47
2022/02/28 10:01:42;;;;;;;7.97;2.40;;;;;;;;;;4999860;28;20117;-46
2022/02/28 10:04:08;;;;;;;5.95;2.67;;;;;;;;;;4996112;28;20041;-44
2022/02/28 10:06:35;;;;;;;4.78;2.38;;;;;;;;;;4999403;28;20071;-45
2022/02/28 10:09:03;;;;;;;6.63;2.40;;;;;;;;;;5007724;28;20041;-48
2022/02/28 10:11:30;;;;;;;8.13;2.75;;;;;;;;;;5007793;28;20038;-48
2022/02/28 10:13:59;;;;;;;7.78;2.25;;;;;;;;;;5007850;28;20389;-46
2022/02/28 10:16:41;;;;;;;8.85;2.40;;;;;;;;;;5007720;28;20065;-45
2022/02/28 10:19:08;;;;;;;9.15;2.50;;;;;;;;;;5007637;28;20026;-46
2022/02/28 10:21:40;;;;;;;7.60;2.38;;;;;;;;;;5007778;28;20030;-43
2022/02/28 10:24:07;;;;;;;9.35;3.20;;;;;;;;;;5007348;28;20096;-43
2022/02/28 10:26:41;;;;;;;8.32;2.45;;;;;;;;;;5007550;28;20503;-46
2022/02/28 10:29:08;;;;;;;6.25;2.58;;;;;;;;;;5006867;28;20660;-44
2022/02/28 10:31:35;;;;;;;8.07;2.65;;;;;;;;;;5005460;28;20132;-44
2022/02/28 10:34:10;;;;;;;10.10;3.00;;;;;;;;;;5007805;28;20083;-46
2022/02/28 10:36:37;;;;;;;8.55;2.28;;;;;;;;;;5007982;28;20037;-44
2022/02/28 10:39:07;;;;;;;8.30;2.47;;;;;;;;;;5007323;28;20050;-46
2022/02/28 10:41:40;;;;;;;10.15;2.40;;;;;;;;;;5006512;28;20105;-43
2022/02/28 10:44:09;;;;;;;5.95;2.28;;;;;;;;;;5006479;28;20026;-44
2022/02/28 10:46:39;;;;;;;12.23;2.70;;;;;;;;;;5005889;28;20030;-48
2022/02/28 10:49:09;;;;;;;7.20;2.05;;;;;;;;;;5006029;28;20033;-44
2022/02/28 10:51:51;;;;;;;7.20;2.53;;;;;;;;;;5005964;28;20084;-42
2022/02/28 10:54:20;;;;;;;8.63;2.75;;;;;;;;;;5006036;28;20030;-46
2022/02/28 10:57:04;;;;;;;6.35;2.38;;;;;;;;;;5007607;28;20038;-46
2022/02/28 10:59:39;;;;;;;10.15;2.75;;;;;;;;;;5007212;28;20037;-48
2022/02/28 11:02:06;;;;;;;10.82;2.53;;;;;;;;;;4997505;28;20034;-46
2022/02/28 11:04:37;;;;;;;6.55;2.42;;;;;;;;;;5007003;28;20502;-42
2022/02/28 11:07:04;;;;;;;6.22;2.50;;;;;;;;;;5007518;28;20032;-42
2022/02/28 11:09:31;;;;;;;6.13;2.55;;;;;;;;;;5008068;28;20060;-43
2022/02/28 11:12:01;;;;;;;7.80;2.03;;;;;;;;;;5007680;28;20060;-42
2022/02/28 11:14:29;;;;;;;5.43;2.63;;;;;;;;;;5008383;28;20041;-42
2022/02/28 11:16:55;;;;;;;5.57;2.15;;;;;;;;;;5009753;28;20061;-43
2022/02/28 11:19:21;;;;;;;5.70;2.35;;;;;;;;;;5011879;28;20488;-45
2022/02/28 11:21:47;;;;;;;11.27;3.03;;;;;;;;;;5012161;28;20068;-42
2022/02/28 11:24:13;;;;;;;6.22;2.15;;;;;;;;;;5011510;28;20120;-44
2022/02/28 11:26:39;;;;;;;7.13;2.38;;;;;;;;;;5011846;28;20175;-44
2022/02/28 11:29:05;;;;;;;5.85;2.10;;;;;;;;;;5012200;28;20088;-47
2022/02/28 11:31:31;;;;;;;5.55;2.60;;;;;;;;;;5011298;28;20030;-48
2022/02/28 11:34:03;;;;;;;5.50;2.30;;;;;;;;;;5010841;28;20057;-46
2022/02/28 11:36:44;;;;;;;5.30;2.08;;;;;;;;;;5010885;28;20628;-44
2022/02/28 11:39:14;;;;;;;6.15;2.40;;;;;;;;;;5011642;28;20123;-44
2022/02/28 11:41:40;;;;;;;7.35;2.63;;;;;;;;;;5011273;28;20029;-47
2022/02/28 11:44:07;;;;;;;7.15;2.83;;;;;;;;;;5010084;28;20118;-44
2022/02/28 11:46:37;;;;;;;7.57;2.40;;;;;;;;;;5010168;28;20022;-44
2022/02/28 11:49:06;;;;;;;8.30;2.40;;;;;;;;;;5011051;28;20029;-43
2022/02/28 11:51:34;;;;;;;5.20;2.47;;;;;;;;;;5007940;28;20029;-44
2022/02/28 11:54:05;;;;;;;7.47;2.33;;;;;;;;;;5009522;28;20129;-43
2022/02/28 11:56:31;;;;;;;7.22;2.22;;;;;;;;;;5010790;28;20026;-45
2022/02/28 11:59:02;;;;;;;6.85;2.55;;;;;;;;;;5010903;28;20033;-46
2022/02/28 12:01:35;;;;;;;5.88;2.17;;;;;;;;;;5011045;28;20394;-44
2022/02/28 12:04:10;;;;;;;7.07;2.50;;;;;;;;;;5010383;28;20077;-46
2022/02/28 12:06:52;;;;;;;6.53;2.08;;;;;;;;;;5009988;28;20032;-48
2022/02/28 12:09:50;;;;;;;5.63;2.47;;;;;;;;;;5000288;28;20033;-47
2022/02/28 12:12:27;;;;;;;9.15;3.67;;;;;;;;;;4977750;28;20500;-48
2022/02/28 12:17:31;;;;;;;5.75;2.35;;;;;;;;;;5010686;28;20045;-47
2022/02/28 12:20:19;;;;;;;7.13;2.15;;;;;;;;;;5010576;28;20096;-44
2022/02/28 12:22:57;;;;;;;12.55;2.38;;;;;;;;;;5009414;28;20105;-47
2022/02/28 12:25:43;;;;;;;4.63;2.35;;;;;;;;;;5010467;28;20500;-44
2022/02/28 12:28:26;;;;;;;6.38;2.60;;;;;;;;;;5002630;28;20098;-46
2022/02/28 12:30:52;;;;;;;6.88;2.60;;;;;;;;;;5010621;28;20068;-45
2022/02/28 12:33:25;;;;;;;8.20;2.80;;;;;;;;;;5010621;28;20022;-46
2022/02/28 12:35:54;;;;;;;4.93;2.53;;;;;;;;;;5010572;28;20037;-45
2022/02/28 12:38:22;;;;;;;10.05;3.25;;;;;;;;;;5009560;28;20025;-46
2022/02/28 12:40:52;;;;;;;7.22;3.17;;;;;;;;;;5010567;28;20026;-45
2022/02/28 12:43:20;;;;;;;7.15;2.35;;;;;;;;;;5010179;28;20030;-47
2022/02/28 12:45:50;;;;;;;9.43;2.38;;;;;;;;;;5010600;28;20068;-43
2022/02/28 12:48:17;;;;;;;10.15;2.95;;;;;;;;;;5010281;28;20104;-45
2022/02/28 12:50:50;;;;;;;7.38;2.70;;;;;;;;;;5009935;28;20030;-45
2022/02/28 12:53:16;;;;;;;10.82;2.28;;;;;;;;;;5009470;28;20036;-45
2022/02/28 12:55:52;;;;;;;7.75;2.97;;;;;;;;;;5009812;28;20037;-48
2022/02/28 12:58:21;;;;;;;7.70;2.40;;;;;;;;;;5009136;28;20112;-49
2022/02/28 13:00:48;;;;;;;10.88;2.55;;;;;;;;;;5008794;28;20026;-45
2022/02/28 13:03:15;;;;;;;8.30;2.90;;;;;;;;;;5009025;28;20054;-44
2022/02/28 13:05:41;;;;;;;11.18;2.97;;;;;;;;;;5005652;28;20384;-44
2022/02/28 13:08:07;;;;;;;10.35;2.40;;;;;;;;;;5009450;28;20511;-43
2022/02/28 13:10:33;;;;;;;7.72;2.45;;;;;;;;;;5007878;28;20022;-46
2022/02/28 13:13:01;;;;;;;15.43;5.57;;;;;;;;;;5008657;28;20540;-44
2022/02/28 13:15:30;;;;;;;9.20;4.35;;;;;;;;;;5011337;28;20072;-45
2022/02/28 13:17:56;;;;;;;9.00;4.68;;;;;;;;;;5010222;28;20034;-42
2022/02/28 13:20:23;;;;;;;11.05;4.57;;;;;;;;;;5008169;28;20033;-44
2022/02/28 13:22:51;;;;;;;12.68;4.88;;;;;;;;;;5008115;28;20037;-43
2022/02/28 13:25:17;;;;;;;11.15;4.30;;;;;;;;;;5008191;28;20052;-43
2022/02/28 13:27:44;;;;;;;17.23;4.85;;;;;;;;;;5005507;28;20038;-45
2022/02/28 13:30:11;;;;;;;8.90;4.93;;;;;;;;;;5008478;28;20061;-42
2022/02/28 13:32:37;;;;;;;16.02;5.70;;;;;;;;;;5008436;28;20026;-43
2022/02/28 13:35:03;;;;;;;12.10;4.40;;;;;;;;;;5008262;28;20048;-43
2022/02/28 13:37:30;;;;;;;8.98;4.20;;;;;;;;;;5008265;28;20477;-45
2022/02/28 13:39:57;;;;;;;13.80;4.40;;;;;;;;;;5006529;28;20026;-42
2022/02/28 13:42:26;;;;;;;11.82;4.28;;;;;;;;;;5007966;28;20034;-43
2022/02/28 13:45:04;;;;;;;15.98;5.00;;;;;;;;;;5008449;28;20419;-46
2022/02/28 13:47:34;;;;;;;10.02;4.30;;;;;;;;;;5007639;28;20030;-43
2022/02/28 13:50:01;;;;;;;11.05;4.05;;;;;;;;;;5008440;28;20033;-47
2022/02/28 13:52:29;;;;;;;11.50;4.13;;;;;;;;;;5008574;28;20540;-45
2022/02/28 13:55:07;;;;;;;9.95;4.32;;;;;;;;;;5007589;28;20220;-47
2022/02/28 13:57:35;;;;;;;7.10;3.22;;;;;;;;;;5006623;28;20121;-44
2022/02/28 14:00:14;;;;;;;8.02;3.90;;;;;;;;;;5008199;28;20026;-42
2022/02/28 14:02:57;;;;;;;12.95;4.30;;;;;;;;;;5005191;28;20033;-45
2022/02/28 14:05:27;;;;;;;10.02;4.07;;;;;;;;;;5006918;28;20046;-43
2022/02/28 14:07:54;;;;;;;9.13;4.13;;;;;;;;;;5007365;28;20049;-45
2022/02/28 14:10:28;;;;;;;7.32;3.70;;;;;;;;;;5004994;28;20488;-47
2022/02/28 14:12:55;;;;;;;8.57;4.43;;;;;;;;;;5009505;28;20029;-44
2022/02/28 14:15:33;;;;;;;7.45;4.00;;;;;;;;;;5008000;28;20077;-48
2022/02/28 14:18:01;;;;;;;9.57;3.97;;;;;;;;;;5007858;28;20395;-49
2022/02/28 14:20:27;;;;;;;7.70;3.47;;;;;;;;;;5008233;28;20029;-42
2022/02/28 14:23:12;;;;;;;19.23;5.13;;;;;;;;;;5007813;28;20393;-45
2022/02/28 14:25:39;;;;;;;8.65;3.83;;;;;;;;;;5006637;28;20037;-48
2022/02/28 14:28:18;;;;;;;7.47;3.30;;;;;;;;;;5007784;28;20021;-44
2022/02/28 14:31:17;;;;;;;8.45;3.88;;;;;;;;;;5008047;28;20080;-46
2022/02/28 14:33:54;;;;;;;7.55;3.67;;;;;;;;;;5004598;28;20026;-48
2022/02/28 14:36:20;;;;;;;12.35;3.85;;;;;;;;;;5003785;28;20080;-46
2022/02/28 14:38:46;;;;;;;8.80;3.67;;;;;;;;;;5007469;28;20040;-43
2022/02/28 14:41:13;;;;;;;7.47;3.67;;;;;;;;;;5007071;28;20030;-49
2022/02/28 14:43:40;;;;;;;9.95;3.55;;;;;;;;;;5005468;28;20453;-44